sensor_id;sensor_type;location;lat;lon;timestamp;pressure;altitude;pressure_sealevel;temperature;humidity
70909;BME280;58554;52.006;5.926;2022-12-31T00:01:40;99404.66;;;10.93;98.13
70909;BME280;58554;52.006;5.926;2022-12-31T00:04:07;99409.94;;;10.93;99.40
70909;BME280;58554;52.006;5.926;2022-12-31T00:06:34;99433.63;;;10.95;99.32
70909;BME280;58554;52.006;5.926;2022-12-31T00:09:05;99450.22;;;10.97;98.95
70909;BME280;58554;52.006;5.926;2022-12-31T00:11:33;99429.91;;;10.98;98.63
70909;BME280;58554;52.006;5.926;2022-12-31T00:14:03;99429.78;;;10.99;98.65
70909;BME280;58554;52.006;5.926;2022-12-31T00:16:33;99449.13;;;11.00;99.33
70909;BME280;58554;52.006;5.926;2022-12-31T00:19:02;99441.91;;;11.02;98.99
70909;BME280;58554;52.006;5.926;2022-12-31T00:21:31;99452.50;;;11.02;98.67
70909;BME280;58554;52.006;5.926;2022-12-31T00:24:00;99434.84;;;11.02;98.66
70909;BME280;58554;52.006;5.926;2022-12-31T00:26:29;99447.22;;;11.02;98.64
70909;BME280;58554;52.006;5.926;2022-12-31T00:28:58;99453.59;;;10.99;98.66
70909;BME280;58554;52.006;5.926;2022-12-31T00:31:29;99459.00;;;10.98;98.10
70909;BME280;58554;52.006;5.926;2022-12-31T00:33:58;99460.91;;;10.95;98.27
70909;BME280;58554;52.006;5.926;2022-12-31T00:36:27;99459.25;;;10.94;98.06
70909;BME280;58554;52.006;5.926;2022-12-31T00:38:58;99457.56;;;10.93;98.24
70909;BME280;58554;52.006;5.926;2022-12-31T00:41:27;99469.00;;;10.94;98.08
70909;BME280;58554;52.006;5.926;2022-12-31T00:43:54;99462.00;;;10.93;98.04
70909;BME280;58554;52.006;5.926;2022-12-31T00:46:22;99459.47;;;10.91;97.88
70909;BME280;58554;52.006;5.926;2022-12-31T00:48:52;99457.09;;;10.88;97.96
70909;BME280;58554;52.006;5.926;2022-12-31T00:51:21;99472.22;;;10.86;98.23
70909;BME280;58554;52.006;5.926;2022-12-31T00:53:49;99465.38;;;10.84;98.39
70909;BME280;58554;52.006;5.926;2022-12-31T00:56:17;99468.03;;;10.84;98.23
70909;BME280;58554;52.006;5.926;2022-12-31T00:58:46;99459.59;;;10.79;98.14
70909;BME280;58554;52.006;5.926;2022-12-31T01:01:16;99464.88;;;10.79;98.03
70909;BME280;58554;52.006;5.926;2022-12-31T01:03:45;99464.31;;;10.75;97.92
70909;BME280;58554;52.006;5.926;2022-12-31T01:06:16;99460.94;;;10.73;98.02
70909;BME280;58554;52.006;5.926;2022-12-31T01:08:44;99468.16;;;10.71;97.93
70909;BME280;58554;52.006;5.926;2022-12-31T01:11:13;99471.75;;;10.70;98.02
70909;BME280;58554;52.006;5.926;2022-12-31T01:13:40;99478.00;;;10.69;97.87
70909;BME280;58554;52.006;5.926;2022-12-31T01:16:08;99464.06;;;10.67;98.04
70909;BME280;58554;52.006;5.926;2022-12-31T01:18:36;99475.47;;;10.67;98.02
70909;BME280;58554;52.006;5.926;2022-12-31T01:21:05;99479.22;;;10.65;97.97
70909;BME280;58554;52.006;5.926;2022-12-31T01:23:36;99480.88;;;10.66;97.95
70909;BME280;58554;52.006;5.926;2022-12-31T01:26:05;99467.78;;;10.64;97.90
70909;BME280;58554;52.006;5.926;2022-12-31T01:28:34;99473.06;;;10.64;97.77
70909;BME280;58554;52.006;5.926;2022-12-31T01:31:03;99467.78;;;10.64;97.71
70909;BME280;58554;52.006;5.926;2022-12-31T01:33:30;99451.31;;;10.61;97.70
70909;BME280;58554;52.006;5.926;2022-12-31T01:36:01;99448.78;;;10.59;97.78
70909;BME280;58554;52.006;5.926;2022-12-31T01:38:28;99455.19;;;10.57;97.56
70909;BME280;58554;52.006;5.926;2022-12-31T01:40:57;99449.16;;;10.54;97.70
70909;BME280;58554;52.006;5.926;2022-12-31T01:43:46;99447.56;;;10.52;97.63
70909;BME280;58554;52.006;5.926;2022-12-31T01:46:24;99445.91;;;10.51;97.66
70909;BME280;58554;52.006;5.926;2022-12-31T01:48:57;99459.97;;;10.51;97.51
70909;BME280;58554;52.006;5.926;2022-12-31T01:51:28;99464.41;;;10.51;97.73
70909;BME280;58554;52.006;5.926;2022-12-31T01:53:58;99461.16;;;10.47;97.54
70909;BME280;58554;52.006;5.926;2022-12-31T01:56:32;99462.13;;;10.46;97.64
70909;BME280;58554;52.006;5.926;2022-12-31T01:59:00;99472.72;;;10.46;97.50
70909;BME280;58554;52.006;5.926;2022-12-31T02:01:31;99465.63;;;10.47;97.46
70909;BME280;58554;52.006;5.926;2022-12-31T02:04:04;99463.81;;;10.47;97.54
70909;BME280;58554;52.006;5.926;2022-12-31T02:06:37;99464.66;;;10.48;97.69
70909;BME280;58554;52.006;5.926;2022-12-31T02:09:06;99472.59;;;10.48;97.53
70909;BME280;58554;52.006;5.926;2022-12-31T02:11:36;99490.38;;;10.46;97.58
70909;BME280;58554;52.006;5.926;2022-12-31T02:14:05;99496.50;;;10.46;97.69
70909;BME280;58554;52.006;5.926;2022-12-31T02:16:42;99505.38;;;10.45;97.75
70909;BME280;58554;52.006;5.926;2022-12-31T02:22:45;99513.44;;;10.44;97.81
70909;BME280;58554;52.006;5.926;2022-12-31T02:25:51;99499.25;;;10.45;97.68
70909;BME280;58554;52.006;5.926;2022-12-31T02:28:54;99489.66;;;10.44;97.93
70909;BME280;58554;52.006;5.926;2022-12-31T02:31:43;99483.38;;;10.45;97.78
70909;BME280;58554;52.006;5.926;2022-12-31T02:34:19;99462.34;;;10.43;97.83
70909;BME280;58554;52.006;5.926;2022-12-31T02:36:50;99458.03;;;10.42;97.82
70909;BME280;58554;52.006;5.926;2022-12-31T02:39:20;99451.78;;;10.43;97.84
70909;BME280;58554;52.006;5.926;2022-12-31T02:41:47;99452.03;;;10.40;97.68
70909;BME280;58554;52.006;5.926;2022-12-31T02:44:21;99454.78;;;10.39;97.60
70909;BME280;58554;52.006;5.926;2022-12-31T02:47:02;99440.03;;;10.36;97.67
70909;BME280;58554;52.006;5.926;2022-12-31T02:49:42;99452.50;;;10.34;97.82
70909;BME280;58554;52.006;5.926;2022-12-31T02:52:22;99449.97;;;10.32;97.81
70909;BME280;58554;52.006;5.926;2022-12-31T02:55:08;99442.16;;;10.31;97.96
70909;BME280;58554;52.006;5.926;2022-12-31T02:57:46;99441.44;;;10.29;97.78
70909;BME280;58554;52.006;5.926;2022-12-31T03:00:20;99456.56;;;10.27;97.73
70909;BME280;58554;52.006;5.926;2022-12-31T03:02:50;99457.56;;;10.26;98.02
70909;BME280;58554;52.006;5.926;2022-12-31T03:05:23;99460.31;;;10.24;98.11
70909;BME280;58554;52.006;5.926;2022-12-31T03:07:52;99464.75;;;10.24;97.98
70909;BME280;58554;52.006;5.926;2022-12-31T03:10:19;99470.03;;;10.24;98.09
70909;BME280;58554;52.006;5.926;2022-12-31T03:12:46;99483.25;;;10.24;98.13
70909;BME280;58554;52.006;5.926;2022-12-31T03:15:15;99476.41;;;10.21;98.18
70909;BME280;58554;52.006;5.926;2022-12-31T03:17:52;99465.94;;;10.20;98.04
70909;BME280;58554;52.006;5.926;2022-12-31T03:20:24;99466.78;;;10.20;98.11
70909;BME280;58554;52.006;5.926;2022-12-31T03:22:53;99471.34;;;10.18;98.07
70909;BME280;58554;52.006;5.926;2022-12-31T03:25:19;99469.78;;;10.16;97.99
70909;BME280;58554;52.006;5.926;2022-12-31T03:27:46;99482.97;;;10.16;98.20
70909;BME280;58554;52.006;5.926;2022-12-31T03:30:16;99482.38;;;10.12;98.15
70909;BME280;58554;52.006;5.926;2022-12-31T03:32:44;99481.53;;;10.11;98.05
70909;BME280;58554;52.006;5.926;2022-12-31T03:35:16;99489.56;;;10.10;98.18
70909;BME280;58554;52.006;5.926;2022-12-31T03:37:46;99473.00;;;10.08;97.96
70909;BME280;58554;52.006;5.926;2022-12-31T03:40:14;99479.97;;;10.09;97.97
70909;BME280;58554;52.006;5.926;2022-12-31T03:42:42;99486.34;;;10.06;98.04
70909;BME280;58554;52.006;5.926;2022-12-31T03:45:10;99486.44;;;10.05;97.91
70909;BME280;58554;52.006;5.926;2022-12-31T03:47:38;99482.09;;;10.04;97.93
70909;BME280;58554;52.006;5.926;2022-12-31T03:50:07;99481.38;;;10.02;97.82
70909;BME280;58554;52.006;5.926;2022-12-31T03:52:38;99476.09;;;10.02;97.84
70909;BME280;58554;52.006;5.926;2022-12-31T03:55:06;99476.25;;;10.00;98.18
70909;BME280;58554;52.006;5.926;2022-12-31T03:57:34;99482.56;;;9.98;98.13
70909;BME280;58554;52.006;5.926;2022-12-31T04:00:02;99494.22;;;9.95;98.30
70909;BME280;58554;52.006;5.926;2022-12-31T04:02:30;99497.56;;;9.97;98.35
70909;BME280;58554;52.006;5.926;2022-12-31T04:04:56;99493.28;;;9.96;98.24
70909;BME280;58554;52.006;5.926;2022-12-31T04:07:23;99492.28;;;9.97;98.50
70909;BME280;58554;52.006;5.926;2022-12-31T04:09:52;99486.91;;;9.99;98.35
70909;BME280;58554;52.006;5.926;2022-12-31T04:12:19;99484.38;;;9.97;98.55
70909;BME280;58554;52.006;5.926;2022-12-31T04:14:45;99490.50;;;9.98;98.54
70909;BME280;58554;52.006;5.926;2022-12-31T04:17:11;99487.84;;;9.98;98.81
70909;BME280;58554;52.006;5.926;2022-12-31T04:19:38;99486.06;;;9.98;98.71
70909;BME280;58554;52.006;5.926;2022-12-31T04:22:05;99481.72;;;9.97;98.93
70909;BME280;58554;52.006;5.926;2022-12-31T04:24:31;99478.25;;;9.97;99.39
70909;BME280;58554;52.006;5.926;2022-12-31T04:27:00;99469.38;;;9.98;99.01
70909;BME280;58554;52.006;5.926;2022-12-31T04:29:27;99479.09;;;9.97;98.99
70909;BME280;58554;52.006;5.926;2022-12-31T04:31:53;99479.94;;;9.98;99.01
70909;BME280;58554;52.006;5.926;2022-12-31T04:34:20;99475.50;;;9.98;99.08
70909;BME280;58554;52.006;5.926;2022-12-31T04:36:47;99484.16;;;10.00;98.81
70909;BME280;58554;52.006;5.926;2022-12-31T04:39:13;99475.50;;;9.98;99.00
70909;BME280;58554;52.006;5.926;2022-12-31T04:41:40;99462.31;;;9.98;98.94
70909;BME280;58554;52.006;5.926;2022-12-31T04:44:09;99457.03;;;9.98;98.98
70909;BME280;58554;52.006;5.926;2022-12-31T04:46:35;99459.66;;;9.98;99.02
70909;BME280;58554;52.006;5.926;2022-12-31T04:49:02;99461.44;;;9.98;99.19
70909;BME280;58554;52.006;5.926;2022-12-31T04:51:29;99458.81;;;9.98;99.08
70909;BME280;58554;52.006;5.926;2022-12-31T04:53:56;99463.97;;;9.99;99.08
70909;BME280;58554;52.006;5.926;2022-12-31T04:56:23;99460.50;;;9.99;99.10
70909;BME280;58554;52.006;5.926;2022-12-31T04:58:50;99461.34;;;9.99;99.26
70909;BME280;58554;52.006;5.926;2022-12-31T05:01:20;99456.06;;;9.99;99.20
70909;BME280;58554;52.006;5.926;2022-12-31T05:03:47;99454.25;;;10.00;99.21
70909;BME280;58554;52.006;5.926;2022-12-31T05:06:15;99454.25;;;10.00;99.29
70909;BME280;58554;52.006;5.926;2022-12-31T05:08:44;99445.38;;;10.01;99.28
70909;BME280;58554;52.006;5.926;2022-12-31T05:11:11;99444.53;;;10.00;99.28
70909;BME280;58554;52.006;5.926;2022-12-31T05:13:38;99459.41;;;10.01;99.60
70909;BME280;58554;52.006;5.926;2022-12-31T05:16:05;99466.41;;;10.02;99.75
70909;BME280;58554;52.006;5.926;2022-12-31T05:18:35;99460.25;;;10.02;99.94
70909;BME280;58554;52.006;5.926;2022-12-31T05:21:02;99462.78;;;10.03;100.00
70909;BME280;58554;52.006;5.926;2022-12-31T05:23:29;99462.56;;;10.06;100.00
70909;BME280;58554;52.006;5.926;2022-12-31T05:25:56;99476.59;;;10.07;100.00
70909;BME280;58554;52.006;5.926;2022-12-31T05:28:23;99480.09;;;10.07;100.00
70909;BME280;58554;52.006;5.926;2022-12-31T05:30:50;99480.81;;;10.09;100.00
70909;BME280;58554;52.006;5.926;2022-12-31T05:33:17;99471.81;;;10.12;100.00
70909;BME280;58554;52.006;5.926;2022-12-31T05:35:47;99482.25;;;10.13;100.00
70909;BME280;58554;52.006;5.926;2022-12-31T05:38:13;99471.59;;;10.15;100.00
70909;BME280;58554;52.006;5.926;2022-12-31T05:40:40;99482.75;;;10.19;100.00
70909;BME280;58554;52.006;5.926;2022-12-31T05:43:06;99483.59;;;10.19;100.00
70909;BME280;58554;52.006;5.926;2022-12-31T05:45:33;99481.78;;;10.20;100.00
70909;BME280;58554;52.006;5.926;2022-12-31T05:47:59;99475.53;;;10.21;100.00
70909;BME280;58554;52.006;5.926;2022-12-31T05:50:26;99474.47;;;10.23;100.00
70909;BME280;58554;52.006;5.926;2022-12-31T05:52:55;99473.50;;;10.24;100.00
70909;BME280;58554;52.006;5.926;2022-12-31T05:55:22;99489.25;;;10.26;100.00
70909;BME280;58554;52.006;5.926;2022-12-31T05:57:49;99488.28;;;10.27;100.00
70909;BME280;58554;52.006;5.926;2022-12-31T06:00:16;99488.16;;;10.28;100.00
70909;BME280;58554;52.006;5.926;2022-12-31T06:02:42;99488.91;;;10.30;100.00
70909;BME280;58554;52.006;5.926;2022-12-31T06:05:09;99493.97;;;10.33;100.00
70909;BME280;58554;52.006;5.926;2022-12-31T06:07:35;99485.16;;;10.33;100.00
70909;BME280;58554;52.006;5.926;2022-12-31T06:10:05;99493.81;;;10.35;100.00
70909;BME280;58554;52.006;5.926;2022-12-31T06:12:32;99498.28;;;10.34;100.00
70909;BME280;58554;52.006;5.926;2022-12-31T06:14:59;99496.47;;;10.35;100.00
70909;BME280;58554;52.006;5.926;2022-12-31T06:17:26;99502.59;;;10.36;100.00
70909;BME280;58554;52.006;5.926;2022-12-31T06:19:53;99508.72;;;10.36;100.00
70909;BME280;58554;52.006;5.926;2022-12-31T06:22:19;99514.00;;;10.36;100.00
70909;BME280;58554;52.006;5.926;2022-12-31T06:24:46;99496.25;;;10.38;100.00
70909;BME280;58554;52.006;5.926;2022-12-31T06:27:15;99495.25;;;10.39;100.00
70909;BME280;58554;52.006;5.926;2022-12-31T06:29:41;99499.59;;;10.40;100.00
70909;BME280;58554;52.006;5.926;2022-12-31T06:32:08;99511.72;;;10.43;100.00
70909;BME280;58554;52.006;5.926;2022-12-31T06:34:34;99499.34;;;10.43;100.00
70909;BME280;58554;52.006;5.926;2022-12-31T06:37:01;99493.97;;;10.45;100.00
70909;BME280;58554;52.006;5.926;2022-12-31T06:39:27;99500.81;;;10.47;100.00
70909;BME280;58554;52.006;5.926;2022-12-31T06:41:54;99500.59;;;10.50;100.00
70909;BME280;58554;52.006;5.926;2022-12-31T06:44:23;99513.53;;;10.53;100.00
70909;BME280;58554;52.006;5.926;2022-12-31T06:46:49;99518.59;;;10.57;100.00
70909;BME280;58554;52.006;5.926;2022-12-31T06:49:16;99511.25;;;10.60;100.00
70909;BME280;58554;52.006;5.926;2022-12-31T06:51:43;99513.69;;;10.63;100.00
70909;BME280;58554;52.006;5.926;2022-12-31T06:54:09;99505.38;;;10.68;100.00
70909;BME280;58554;52.006;5.926;2022-12-31T06:56:37;99511.28;;;10.71;100.00
70909;BME280;58554;52.006;5.926;2022-12-31T06:59:05;99511.91;;;10.75;100.00
70909;BME280;58554;52.006;5.926;2022-12-31T07:01:48;99526.41;;;10.81;100.00
70909;BME280;58554;52.006;5.926;2022-12-31T07:04:46;99524.06;;;10.89;100.00
70909;BME280;58554;52.006;5.926;2022-12-31T07:07:32;99524.19;;;10.99;100.00
70909;BME280;58554;52.006;5.926;2022-12-31T07:10:13;99518.41;;;11.05;100.00
70909;BME280;58554;52.006;5.926;2022-12-31T07:13:01;99495.91;;;11.10;100.00
70909;BME280;58554;52.006;5.926;2022-12-31T07:15:57;99496.38;;;11.15;100.00
70909;BME280;58554;52.006;5.926;2022-12-31T07:18:40;99508.03;;;11.24;100.00
70909;BME280;58554;52.006;5.926;2022-12-31T07:21:14;99510.28;;;11.29;100.00
70909;BME280;58554;52.006;5.926;2022-12-31T07:23:43;99513.53;;;11.32;100.00
70909;BME280;58554;52.006;5.926;2022-12-31T07:26:17;99508.97;;;11.34;100.00
70909;BME280;58554;52.006;5.926;2022-12-31T07:29:01;99501.50;;;11.40;100.00
70909;BME280;58554;52.006;5.926;2022-12-31T07:31:49;99503.88;;;11.43;100.00
70909;BME280;58554;52.006;5.926;2022-12-31T07:34:36;99504.50;;;11.46;100.00
70909;BME280;58554;52.006;5.926;2022-12-31T07:37:20;99504.50;;;11.46;100.00
70909;BME280;58554;52.006;5.926;2022-12-31T07:40:01;99497.38;;;11.47;100.00
70909;BME280;58554;52.006;5.926;2022-12-31T07:42:39;99520.09;;;11.49;100.00
70909;BME280;58554;52.006;5.926;2022-12-31T07:45:24;99523.59;;;11.50;100.00
70909;BME280;58554;52.006;5.926;2022-12-31T07:47:58;99524.31;;;11.52;100.00
70909;BME280;58554;52.006;5.926;2022-12-31T07:50:29;99526.00;;;11.53;100.00
70909;BME280;58554;52.006;5.926;2022-12-31T07:52:57;99524.19;;;11.53;100.00
70909;BME280;58554;52.006;5.926;2022-12-31T07:55:24;99542.59;;;11.55;100.00
70909;BME280;58554;52.006;5.926;2022-12-31T07:57:56;99508.91;;;11.57;100.00
70909;BME280;58554;52.006;5.926;2022-12-31T08:00:30;99533.44;;;11.59;100.00
70909;BME280;58554;52.006;5.926;2022-12-31T08:03:07;99531.41;;;11.63;100.00
70909;BME280;58554;52.006;5.926;2022-12-31T08:05:48;99531.13;;;11.66;100.00
70909;BME280;58554;52.006;5.926;2022-12-31T08:08:30;99544.25;;;11.67;100.00
70909;BME280;58554;52.006;5.926;2022-12-31T08:11:11;99546.63;;;11.70;100.00
70909;BME280;58554;52.006;5.926;2022-12-31T08:13:46;99543.88;;;11.72;100.00
70909;BME280;58554;52.006;5.926;2022-12-31T08:16:14;99540.13;;;11.74;100.00
70909;BME280;58554;52.006;5.926;2022-12-31T08:18:42;99558.81;;;11.73;100.00
70909;BME280;58554;52.006;5.926;2022-12-31T08:21:21;99551.94;;;11.70;100.00
70909;BME280;58554;52.006;5.926;2022-12-31T08:24:06;99551.38;;;11.67;100.00
70909;BME280;58554;52.006;5.926;2022-12-31T08:26:49;99550.88;;;11.62;100.00
70909;BME280;58554;52.006;5.926;2022-12-31T08:29:33;99560.03;;;11.58;100.00
70909;BME280;58554;52.006;5.926;2022-12-31T08:32:11;99561.13;;;11.55;100.00
70909;BME280;58554;52.006;5.926;2022-12-31T08:34:53;99574.59;;;11.52;100.00
70909;BME280;58554;52.006;5.926;2022-12-31T08:37:36;99573.78;;;11.51;100.00
70909;BME280;58554;52.006;5.926;2022-12-31T08:40:18;99572.94;;;11.51;100.00
70909;BME280;58554;52.006;5.926;2022-12-31T08:43:03;99581.81;;;11.50;100.00
70909;BME280;58554;52.006;5.926;2022-12-31T08:45:45;99594.34;;;11.48;100.00
70909;BME280;58554;52.006;5.926;2022-12-31T08:48:24;99591.84;;;11.46;100.00
70909;BME280;58554;52.006;5.926;2022-12-31T08:50:58;99596.41;;;11.44;100.00
70909;BME280;58554;52.006;5.926;2022-12-31T08:53:28;99606.03;;;11.45;100.00
70909;BME280;58554;52.006;5.926;2022-12-31T08:55:59;99612.31;;;11.44;100.00
70909;BME280;58554;52.006;5.926;2022-12-31T08:58:41;99641.41;;;11.44;100.00
70909;BME280;58554;52.006;5.926;2022-12-31T09:01:19;99630.94;;;11.43;100.00
70909;BME280;58554;52.006;5.926;2022-12-31T09:04:06;99655.59;;;11.43;100.00
70909;BME280;58554;52.006;5.926;2022-12-31T09:06:49;99649.47;;;11.43;100.00
70909;BME280;58554;52.006;5.926;2022-12-31T09:09:31;99654.66;;;11.44;100.00
70909;BME280;58554;52.006;5.926;2022-12-31T09:12:15;99648.38;;;11.45;100.00
70909;BME280;58554;52.006;5.926;2022-12-31T09:14:55;99664.16;;;11.47;100.00
70909;BME280;58554;52.006;5.926;2022-12-31T09:17:42;99672.81;;;11.49;100.00
70909;BME280;58554;52.006;5.926;2022-12-31T09:20:18;99672.56;;;11.52;100.00
70909;BME280;58554;52.006;5.926;2022-12-31T09:22:49;99679.44;;;11.54;100.00
70909;BME280;58554;52.006;5.926;2022-12-31T09:25:21;99683.88;;;11.54;100.00
70909;BME280;58554;52.006;5.926;2022-12-31T09:27:59;99696.88;;;11.57;100.00
70909;BME280;58554;52.006;5.926;2022-12-31T09:30:40;99696.78;;;11.59;100.00
70909;BME280;58554;52.006;5.926;2022-12-31T09:33:25;99701.19;;;11.58;100.00
70909;BME280;58554;52.006;5.926;2022-12-31T09:36:05;99706.28;;;11.61;100.00
70909;BME280;58554;52.006;5.926;2022-12-31T09:38:42;99707.94;;;11.62;100.00
70909;BME280;58554;52.006;5.926;2022-12-31T09:41:29;99695.56;;;11.63;100.00
70909;BME280;58554;52.006;5.926;2022-12-31T09:44:45;99690.84;;;11.66;100.00
70909;BME280;58554;52.006;5.926;2022-12-31T09:48:07;99715.19;;;11.71;100.00
70909;BME280;58554;52.006;5.926;2022-12-31T09:51:16;99712.28;;;11.74;100.00
70909;BME280;58554;52.006;5.926;2022-12-31T09:54:08;99708.56;;;11.77;100.00
70909;BME280;58554;52.006;5.926;2022-12-31T09:57:06;99701.06;;;11.82;100.00
70909;BME280;58554;52.006;5.926;2022-12-31T09:59:54;99697.94;;;11.88;100.00
70909;BME280;58554;52.006;5.926;2022-12-31T10:02:44;99702.03;;;11.92;100.00
70909;BME280;58554;52.006;5.926;2022-12-31T10:05:45;99705.13;;;11.98;100.00
70909;BME280;58554;52.006;5.926;2022-12-31T10:08:35;99702.00;;;12.04;100.00
70909;BME280;58554;52.006;5.926;2022-12-31T10:11:15;99707.66;;;12.10;100.00
70909;BME280;58554;52.006;5.926;2022-12-31T10:14:02;99708.97;;;12.16;100.00
70909;BME280;58554;52.006;5.926;2022-12-31T10:16:54;99717.25;;;12.23;100.00
70909;BME280;58554;52.006;5.926;2022-12-31T10:19:50;99723.66;;;12.31;100.00
70909;BME280;58554;52.006;5.926;2022-12-31T10:22:42;99708.09;;;12.38;100.00
70909;BME280;58554;52.006;5.926;2022-12-31T10:25:35;99712.06;;;12.44;100.00
70909;BME280;58554;52.006;5.926;2022-12-31T10:28:26;99723.84;;;12.51;100.00
70909;BME280;58554;52.006;5.926;2022-12-31T10:31:12;99706.44;;;12.58;100.00
70909;BME280;58554;52.006;5.926;2022-12-31T10:33:44;99714.03;;;12.63;99.86
70909;BME280;58554;52.006;5.926;2022-12-31T10:36:26;99708.34;;;12.67;99.75
70909;BME280;58554;52.006;5.926;2022-12-31T10:39:02;99695.69;;;12.71;99.70
70909;BME280;58554;52.006;5.926;2022-12-31T10:41:57;99706.03;;;12.74;99.47
70909;BME280;58554;52.006;5.926;2022-12-31T10:45:32;99694.19;;;12.78;99.26
70909;BME280;58554;52.006;5.926;2022-12-31T10:49:03;99697.53;;;12.80;99.12
70909;BME280;58554;52.006;5.926;2022-12-31T10:52:27;99711.41;;;12.84;99.13
70909;BME280;58554;52.006;5.926;2022-12-31T10:55:37;99701.34;;;12.87;98.84
70909;BME280;58554;52.006;5.926;2022-12-31T11:01:32;99707.97;;;12.93;98.78
70909;BME280;58554;52.006;5.926;2022-12-31T11:04:37;99711.22;;;12.96;98.52
70909;BME280;58554;52.006;5.926;2022-12-31T11:07:39;99694.19;;;12.99;98.49
70909;BME280;58554;52.006;5.926;2022-12-31T11:10:38;99722.97;;;13.04;98.42
70909;BME280;58554;52.006;5.926;2022-12-31T11:13:49;99706.34;;;13.02;97.71
70909;BME280;58554;52.006;5.926;2022-12-31T11:16:42;99707.91;;;13.04;97.91
70909;BME280;58554;52.006;5.926;2022-12-31T11:19:28;99699.25;;;13.02;97.97
70909;BME280;58554;52.006;5.926;2022-12-31T11:22:25;99712.50;;;13.02;98.08
70909;BME280;58554;52.006;5.926;2022-12-31T11:25:20;99702.84;;;13.01;98.13
70909;BME280;58554;52.006;5.926;2022-12-31T11:31:11;99697.81;;;12.98;98.31
70909;BME280;58554;52.006;5.926;2022-12-31T11:34:30;99686.09;;;13.01;98.29
70909;BME280;58554;52.006;5.926;2022-12-31T11:37:28;99694.66;;;13.04;98.38
70909;BME280;58554;52.006;5.926;2022-12-31T11:40:14;99706.53;;;13.10;98.44
70909;BME280;58554;52.006;5.926;2022-12-31T11:42:58;99701.94;;;13.12;98.26
70909;BME280;58554;52.006;5.926;2022-12-31T11:45:45;99702.66;;;13.14;97.71
70909;BME280;58554;52.006;5.926;2022-12-31T11:48:31;99704.19;;;13.16;97.33
70909;BME280;58554;52.006;5.926;2022-12-31T11:51:23;99709.25;;;13.20;95.86
70909;BME280;58554;52.006;5.926;2022-12-31T11:54:33;99692.81;;;13.26;96.32
70909;BME280;58554;52.006;5.926;2022-12-31T11:57:19;99687.22;;;13.29;95.84
70909;BME280;58554;52.006;5.926;2022-12-31T11:59:55;99699.41;;;13.31;95.07
70909;BME280;58554;52.006;5.926;2022-12-31T12:02:42;99705.28;;;13.35;95.57
70909;BME280;58554;52.006;5.926;2022-12-31T12:05:13;99717.00;;;13.32;93.84
70909;BME280;58554;52.006;5.926;2022-12-31T12:07:44;99704.44;;;13.34;94.04
70909;BME280;58554;52.006;5.926;2022-12-31T12:10:21;99708.81;;;13.35;94.23
70909;BME280;58554;52.006;5.926;2022-12-31T12:12:50;99711.44;;;13.35;93.07
70909;BME280;58554;52.006;5.926;2022-12-31T12:15:21;99705.88;;;13.38;92.56
70909;BME280;58554;52.006;5.926;2022-12-31T12:17:53;99709.09;;;13.42;92.58
70909;BME280;58554;52.006;5.926;2022-12-31T12:20:28;99717.63;;;13.46;92.72
70909;BME280;58554;52.006;5.926;2022-12-31T12:23:01;99706.75;;;13.49;92.05
70909;BME280;58554;52.006;5.926;2022-12-31T12:25:40;99707.59;;;13.49;91.41
70909;BME280;58554;52.006;5.926;2022-12-31T12:28:18;99725.22;;;13.50;91.39
70909;BME280;58554;52.006;5.926;2022-12-31T12:30:54;99717.38;;;13.49;90.84
70909;BME280;58554;52.006;5.926;2022-12-31T12:33:23;99716.53;;;13.48;91.71
70909;BME280;58554;52.006;5.926;2022-12-31T12:35:50;99720.44;;;13.44;92.42
70909;BME280;58554;52.006;5.926;2022-12-31T12:38:21;99715.66;;;13.38;92.49
70909;BME280;58554;52.006;5.926;2022-12-31T12:40:53;99731.13;;;13.33;92.58
70909;BME280;58554;52.006;5.926;2022-12-31T12:43:24;99720.78;;;13.30;92.94
70909;BME280;58554;52.006;5.926;2022-12-31T12:45:52;99717.53;;;13.26;93.62
70909;BME280;58554;52.006;5.926;2022-12-31T12:48:31;99711.09;;;13.19;93.67
70909;BME280;58554;52.006;5.926;2022-12-31T12:51:12;99713.03;;;13.17;93.83
70909;BME280;58554;52.006;5.926;2022-12-31T12:53:57;99718.56;;;13.14;93.83
70909;BME280;58554;52.006;5.926;2022-12-31T12:56:41;99699.16;;;13.13;93.98
70909;BME280;58554;52.006;5.926;2022-12-31T12:59:32;99720.53;;;13.12;93.79
70909;BME280;58554;52.006;5.926;2022-12-31T13:02:34;99732.97;;;13.11;93.44
70909;BME280;58554;52.006;5.926;2022-12-31T13:05:33;99715.91;;;13.14;93.40
70909;BME280;58554;52.006;5.926;2022-12-31T13:08:23;99719.41;;;13.14;93.72
70909;BME280;58554;52.006;5.926;2022-12-31T13:11:12;99726.53;;;13.14;93.86
70909;BME280;58554;52.006;5.926;2022-12-31T13:13:55;99716.91;;;13.13;93.22
70909;BME280;58554;52.006;5.926;2022-12-31T13:16:35;99729.19;;;13.14;93.44
70909;BME280;58554;52.006;5.926;2022-12-31T13:19:13;99726.41;;;13.15;93.50
70909;BME280;58554;52.006;5.926;2022-12-31T13:21:53;99736.91;;;13.17;93.17
70909;BME280;58554;52.006;5.926;2022-12-31T13:24:46;99741.34;;;13.16;93.08
70909;BME280;58554;52.006;5.926;2022-12-31T13:27:28;99744.16;;;13.15;92.63
70909;BME280;58554;52.006;5.926;2022-12-31T13:30:00;99749.31;;;13.16;92.48
70909;BME280;58554;52.006;5.926;2022-12-31T13:32:36;99747.38;;;13.18;92.48
70909;BME280;58554;52.006;5.926;2022-12-31T13:35:20;99742.06;;;13.18;92.65
70909;BME280;58554;52.006;5.926;2022-12-31T13:37:52;99737.88;;;13.16;92.34
70909;BME280;58554;52.006;5.926;2022-12-31T13:40:30;99739.81;;;13.14;92.86
70909;BME280;58554;52.006;5.926;2022-12-31T13:43:14;99754.19;;;13.11;93.05
70909;BME280;58554;52.006;5.926;2022-12-31T13:45:59;99739.50;;;13.07;93.02
70909;BME280;58554;52.006;5.926;2022-12-31T13:48:43;99743.50;;;13.02;93.19
70909;BME280;58554;52.006;5.926;2022-12-31T13:51:25;99740.13;;;13.00;93.48
70909;BME280;58554;52.006;5.926;2022-12-31T13:54:02;99729.91;;;12.95;93.64
70909;BME280;58554;52.006;5.926;2022-12-31T13:56:36;99741.63;;;12.92;94.09